createdAt,value
2022-10-31T00:04:16.939Z,13.73
2022-10-31T00:30:52.247Z,13.53
2022-10-31T00:41:30.911Z,13.47
2022-10-31T00:46:50.652Z,13.42
2022-10-31T00:57:29.430Z,13.39
2022-10-31T01:13:27.345Z,13.28
2022-10-31T01:24:05.964Z,13.22
2022-10-31T01:29:25.063Z,13.17
2022-10-31T01:40:03.974Z,13.12
2022-10-31T01:56:01.173Z,13.02
2022-10-31T02:06:39.077Z,12.99
2022-10-31T02:11:58.793Z,12.96
2022-10-31T02:27:56.966Z,12.89
2022-10-31T02:39:00.775Z,12.96
2022-10-31T02:54:59.338Z,12.76
2022-10-31T03:00:18.158Z,12.75
2022-10-31T03:05:36.432Z,12.7
2022-10-31T03:12:35.012Z,12.7
2022-10-31T03:21:34.123Z,12.63
2022-10-31T03:26:53.365Z,12.62
2022-10-31T03:37:31.972Z,12.55
2022-10-31T03:42:51.194Z,12.53
2022-10-31T03:53:30.170Z,12.5
2022-10-31T04:04:08.965Z,12.44
2022-10-31T04:09:27.760Z,12.44
2022-10-31T04:14:46.943Z,12.42
2022-10-31T04:20:05.876Z,12.38
2022-10-31T04:25:25.001Z,12.34
2022-10-31T04:36:03.397Z,12.28
2022-10-31T04:46:42.086Z,12.25
2022-10-31T04:52:01.249Z,12.22
2022-10-31T05:02:40.775Z,12.2
2022-10-31T05:18:39.112Z,12.13
2022-10-31T05:27:12.164Z,12.13
2022-10-31T05:34:37.142Z,12.06
2022-10-31T05:45:15.035Z,12.04
2022-10-31T05:53:48.071Z,12.04
2022-10-31T06:17:11.248Z,11.94
2022-10-31T06:27:49.432Z,11.95
2022-10-31T06:33:06.982Z,11.95
2022-10-31T06:43:45.755Z,11.98
2022-10-31T06:59:43.583Z,12.02
2022-10-31T07:05:02.515Z,12.02
2022-10-31T07:21:01.913Z,12.11
2022-10-31T07:26:20.830Z,12.18
2022-10-31T07:36:59.944Z,12.21
2022-10-31T07:47:38.331Z,12.31
2022-10-31T07:52:57.733Z,12.44
2022-10-31T08:03:36.697Z,12.63
2022-10-31T08:17:28.998Z,12.8
2022-10-31T08:19:34.434Z,12.89
2022-10-31T08:35:32.009Z,13.09
2022-10-31T08:46:10.058Z,13.23
2022-10-31T08:51:29.596Z,13.3
2022-10-31T09:02:08.630Z,13.48
2022-10-31T09:12:47.869Z,13.75
2022-10-31T09:18:06.733Z,13.92
2022-10-31T09:28:45.638Z,14.15
2022-10-31T09:34:04.870Z,14.26
2022-10-31T09:44:43.595Z,14.46
2022-10-31T10:00:39.951Z,14.73
2022-10-31T10:07:07.577Z,14.82
2022-10-31T10:16:38.402Z,14.99
2022-10-31T10:27:17.896Z,15.16
2022-10-31T10:32:35.087Z,15.23
2022-10-31T10:37:54.681Z,15.33
2022-10-31T10:43:12.766Z,15.38
2022-10-31T10:48:31.486Z,15.47
2022-10-31T10:59:09.930Z,15.62
2022-10-31T11:11:03.572Z,15.75
2022-10-31T11:15:07.516Z,15.81
2022-10-31T11:25:47.190Z,15.92
2022-10-31T11:41:44.288Z,16.04
2022-10-31T11:52:22.303Z,16.09
2022-10-31T11:57:41.446Z,16.09
2022-10-31T12:08:19.030Z,16.16
2022-10-31T12:24:16.774Z,16.2
2022-10-31T12:29:45.951Z,16.23
2022-10-31T12:34:55.519Z,16.25
2022-10-31T12:40:14.667Z,16.25
2022-10-31T12:50:53.457Z,16.28
2022-10-31T12:57:17.189Z,16.32
2022-10-31T13:06:50.293Z,16.32
2022-10-31T13:22:47.681Z,16.35
2022-10-31T13:33:25.661Z,16.36
2022-10-31T13:38:45.469Z,16.35
2022-10-31T13:45:19.636Z,16.33
2022-10-31T13:49:25.734Z,16.35
2022-10-31T14:05:57.009Z,16.36
2022-10-31T14:10:41.021Z,16.36
2022-10-31T14:16:00.095Z,16.37
2022-10-31T14:26:37.665Z,16.29
2022-10-31T14:42:43.322Z,16.25
2022-10-31T14:53:13.618Z,16.21
2022-10-31T14:58:33.398Z,16.2
2022-10-31T15:05:07.517Z,16.18
2022-10-31T15:09:12.212Z,16.16
2022-10-31T15:14:30.712Z,16.18
2022-10-31T15:26:24.464Z,16.11
2022-10-31T15:30:28.377Z,16.08
2022-10-31T15:37:26.959Z,16.04
2022-10-31T15:41:06.017Z,15.99
2022-10-31T15:51:44.114Z,15.87
2022-10-31T15:57:04.061Z,15.82
2022-10-31T16:07:42.335Z,15.68
2022-10-31T16:23:46.935Z,15.51
2022-10-31T16:34:19.326Z,15.37
2022-10-31T16:39:37.050Z,15.36
2022-10-31T16:50:15.521Z,15.23
2022-10-31T16:55:43.959Z,15.16
2022-10-31T17:06:13.717Z,15.07
2022-10-31T17:11:48.247Z,15.02
2022-10-31T17:22:11.817Z,14.96
2022-10-31T17:32:50.487Z,14.94
2022-10-31T17:38:10.178Z,14.92
2022-10-31T17:43:29.755Z,14.9
2022-10-31T17:48:48.953Z,14.87
2022-10-31T17:59:27.086Z,14.86
2022-10-31T18:04:46.229Z,14.83
2022-10-31T18:15:24.388Z,14.82
2022-10-31T18:20:43.100Z,14.79
2022-10-31T18:31:30.265Z,14.75
2022-10-31T18:36:40.414Z,14.72
2022-10-31T18:47:18.511Z,14.68
2022-10-31T18:57:56.747Z,14.65
2022-10-31T19:03:15.613Z,14.65
2022-10-31T19:08:34.593Z,14.65
2022-10-31T19:13:53.899Z,14.62
2022-10-31T19:24:32.446Z,14.61
2022-10-31T19:29:51.845Z,14.59
2022-10-31T19:36:16.221Z,14.56
2022-10-31T19:45:50.787Z,14.55
2022-10-31T19:56:30.192Z,14.49
2022-10-31T20:12:28.176Z,14.38
2022-10-31T20:28:24.405Z,14.35
2022-10-31T20:34:08.572Z,14.39
2022-10-31T20:39:28.213Z,14.29
2022-10-31T20:55:33.289Z,14.26
2022-10-31T21:06:04.276Z,14.26
2022-10-31T21:11:23.476Z,14.22
2022-10-31T21:22:02.385Z,14.21
2022-10-31T21:38:10.458Z,14.21
2022-10-31T21:49:55.021Z,14.17
2022-10-31T22:04:37.343Z,14.15
2022-10-31T22:09:56.359Z,14.14
2022-10-31T22:15:15.270Z,14.14
2022-10-31T22:20:34.745Z,14.09
2022-10-31T22:36:31.915Z,14.08
2022-10-31T22:47:10.226Z,14.08
2022-10-31T23:03:07.939Z,14.02
2022-10-31T23:13:46.976Z,13.95
2022-10-31T23:19:05.175Z,13.95
2022-10-31T23:29:42.982Z,13.92
2022-10-31T23:45:41.159Z,13.89
